Tunkhannock, Pennsylvania
Current Conditions -  °F | °C
As of 6:54 AM on Friday 19 Dec 2014 (Local Time) from KAVP Reporting Station
Overcast Overcast  
Wind Chill: 21°   Ceiling: 2300
Heat Index: 32°   Visibility: 10mi
Dew Point: 22°   Wind: 16mph
Humidity: 66%   Direction: 330°NNW
Pressure: 30.02"   Gusts: 22mph
Location:  41.54°N, 75.95°W
Report Text: KAVP 191154Z AUTO 33014G19KT 10SM OVC023 00/M06 A3002 RMK AO2 SLP173 60000 T00001056 10011 20000 53016
Loading
Personal Weather Stations






























Interactive Weather Map New forecast layout! Learn more

10-Day Weather Forecast

Advertisements
Track Severe Weather on mobile